Catàleg de serveis del Meteocat
Campanya meteocatpedra

Dades de l'estació automàtica Vallfogona de Balaguer

?
?
Resum diari 21:30 TU
Dades diàries de l'estació meteorològica
Temperatura mitjana 7.3 °C
Temperatura màxima 13.2 °C 13:57 TU
Temperatura mínima 2.7 °C 1:07 TU
Humitat relativa mitjana 86%
Precipitació acumulada 0.0 mm
Ratxa màxima del vent (2 m) 18.4 km/h - 265º 13:51 TU
Irradiació solar global 7.9 MJ/m2

El tram horari està expressat en Temps Universal (TU). Cal sumar una hora en horari d'hivern i dues en horari d'estiu per passar a l'hora oficial.

Vallfogona de Balaguer

Metadades estació meteorol´gica
Municipi Vallfogona de Balaguer
Comarca Noguera
Altitud 238 m
Data alta 17.10.1990
Estat actual Operativa
Dades de període
Període
TU
TM
°C
TX
°C
TN
°C
HRM
%
PPT
mm
VVM (2 m)
km/h
DVM (2 m)
graus
VVX (2 m)
km/h
RS
W/m2
00:00 - 00:30 3.7 4.0 3.3 96 0.0 1.1 7 3.6 0
00:30 - 01:00 3.3 3.7 2.9 96 0.0 1.8 359 6.1 0
01:00 - 01:30 3.0 3.3 2.7 97 0.0 3.6 4 9.0 0
01:30 - 02:00 3.0 3.4 2.8 97 0.0 3.2 2 7.9 0
02:00 - 02:30 3.9 4.4 3.5 95 0.0 2.5 5 7.9 0
02:30 - 03:00 4.2 4.5 3.9 94 0.0 2.5 5 8.3 0
03:00 - 03:30 3.9 4.2 3.6 95 0.0 2.9 356 9.0 0
03:30 - 04:00 4.1 4.2 4.0 94 0.0 2.5 23 8.3 0
04:00 - 04:30 4.8 5.3 4.2 94 0.0 1.1 63 5.0 0
04:30 - 05:00 5.3 5.4 5.3 91 0.0 1.8 42 6.8 0
05:00 - 05:30 5.3 5.6 5.1 91 0.0 3.6 17 9.7 0
05:30 - 06:00 5.1 5.6 4.9 93 0.0 6.1 9 11.5 0
06:00 - 06:30 5.1 5.6 4.9 93 0.0 5.4 12 10.8 0
06:30 - 07:00 5.8 6.2 5.6 90 0.0 5.0 7 10.8 1
07:00 - 07:30 6.3 6.4 6.2 87 0.0 5.0 12 10.1 7
07:30 - 08:00 6.4 6.5 6.2 87 0.0 6.1 11 11.5 31
08:00 - 08:30 6.9 7.2 6.5 86 0.0 6.8 15 13.7 100
08:30 - 09:00 7.0 7.2 6.8 87 0.0 1.8 284 6.8 49
09:00 - 09:30 7.2 7.2 7.1 87 0.0 2.2 263 5.8 49
09:30 - 10:00 7.5 7.8 7.2 86 0.0 3.2 165 8.3 79
10:00 - 10:30 8.2 8.7 7.8 82 0.0 1.8 244 6.1 168
10:30 - 11:00 9.0 9.5 8.7 79 0.0 4.0 240 9.0 305
11:00 - 11:30 10.2 10.8 9.6 75 0.0 5.0 251 9.7 485
11:30 - 12:00 11.0 11.5 10.6 70 0.0 5.0 240 11.9 509
12:00 - 12:30 11.9 12.7 11.3 66 0.0 4.7 221 10.8 501
12:30 - 13:00 12.6 13.0 11.9 62 0.0 4.7 198 11.2 480
13:00 - 13:30 12.7 13.1 12.2 66 0.0 5.8 205 14.4 423
13:30 - 14:00 12.5 13.2 11.9 70 0.0 7.2 229 18.4 329
14:00 - 14:30 12.7 13.1 12.0 70 0.0 7.2 242 14.8 315
14:30 - 15:00 12.9 13.1 12.7 68 0.0 7.2 254 12.6 257
15:00 - 15:30 12.9 13.1 12.7 69 0.0 4.3 223 9.4 182
15:30 - 16:00 12.7 13.0 12.6 71 0.0 2.9 214 8.3 101
16:00 - 16:30 11.9 12.7 10.3 76 0.0 2.5 175 5.8 35
16:30 - 17:00 9.8 10.2 9.3 86 0.0 2.2 172 6.5 0
17:00 - 17:30 8.0 9.1 7.5 91 0.0 2.9 133 7.2 0
17:30 - 18:00 7.5 7.9 7.1 94 0.0 2.5 93 6.8 0
18:00 - 18:30 7.1 7.2 6.7 88 0.0 2.5 159 5.0 0
18:30 - 19:00 6.1 7.2 5.3 90 0.0 1.4 329 7.9 0
19:00 - 19:30 6.7 7.5 5.9 86 0.0 1.8 78 7.9 0
19:30 - 20:00 5.6 6.0 5.3 93 0.0 1.4 110 6.1 0
20:00 - 20:30 5.2 5.8 4.9 95 0.0 1.4 158 5.0 0
20:30 - 21:00 4.3 5.1 3.8 95 0.0 0.7 151 4.3 0
21:00 - 21:30 3.9 4.2 3.7 95 0.0 1.4 69 5.0 0
21:30 - 22:00 4.3 4.7 4.0 94 0.0 3.6 0 7.6 0

Les dades en taronja només han passat un control de qualitat automàtic. Resta pendent la seva validació definitiva.